Terminal Aerodrome Forecast
Issued by NWS Lake Charles, LA

Home | Current Version | Previous Version | Text Only | Print | Product List | Glossary On
Versions: 1 2 3 4 5 6 7 8 9 10 11 12 13 14 15 16 17 18 19 20 21 22 23 24 25 26 27 28 29 30 31 32 33 34
980
FTUS44 KLCH 212320
TAFBPT
TAF
KBPT 212320Z 2200/2224 12007KT P6SM FEW040
     FM220200 12006KT P6SM SKC
     FM220800 12006KT P6SM SCT050
     FM221300 13010KT P6SM VCSH BKN025 PROB30 2214/2218 4SM -RA
      OVC015
     FM221900 14010KT P6SM VCSH SCT025 BKN035
     FM222100 14010KT P6SM FEW026 SCT050=

USA.gov is the U.S. government's official web portal to all federal, state and local government web resources and services.